Time;durP1;ratioP1;P1;durP2;ratioP2;P2;SDS_P1;SDS_P2;PMS_P1;PMS_P2;Temp;Humidity;BMP_temperature;BMP_pressure;BME280_temperature;BME280_humidity;BME280_pressure;Samples;Min_cycle;Max_cycle;Signal;HPM_P1;HPM_P2
2020/12/04 00:00:12;;;;;;;33.45;14.45;;;-2.10;99.90;;;;;;6152700;23;20013;-86
2020/12/04 00:02:39;;;;;;;26.52;14.07;;;-2.10;99.90;;;;;;6151230;23;20005;-87
2020/12/04 00:05:05;;;;;;;24.17;12.48;;;-2.10;99.90;;;;;;6150355;23;20092;-87
2020/12/04 00:07:31;;;;;;;23.30;11.48;;;-2.10;99.90;;;;;;6145462;23;20002;-87
2020/12/04 00:09:57;;;;;;;30.80;14.73;;;-2.00;99.90;;;;;;6146634;23;20006;-87
2020/12/04 00:12:22;;;;;;;26.48;12.88;;;-2.00;99.90;;;;;;6166351;23;20009;-87
2020/12/04 00:14:48;;;;;;;25.83;12.63;;;-1.90;99.90;;;;;;6170900;23;20006;-87
2020/12/04 00:17:14;;;;;;;28.90;12.52;;;-1.90;99.90;;;;;;6137764;23;20012;-86
2020/12/04 00:19:40;;;;;;;22.83;11.93;;;-1.80;99.90;;;;;;6132187;23;20010;-85
2020/12/04 00:22:05;;;;;;;21.20;10.07;;;-1.80;99.90;;;;;;6130809;23;20033;-86
2020/12/04 00:24:31;;;;;;;27.50;12.88;;;-1.80;99.90;;;;;;6146339;23;20013;-87
2020/12/04 00:26:58;;;;;;;25.30;11.13;;;-1.70;99.90;;;;;;6153063;23;20001;-90
2020/12/04 00:29:26;;;;;;;27.08;13.50;;;-1.80;99.70;;;;;;6153439;23;20009;-88
2020/12/04 00:31:56;;;;;;;26.23;12.57;;;-1.80;99.90;;;;;;6150506;23;20015;-87
2020/12/04 00:34:22;;;;;;;19.90;9.70;;;-1.70;99.70;;;;;;6148766;23;20006;-88
2020/12/04 00:36:49;;;;;;;27.27;12.80;;;-1.70;99.80;;;;;;6143569;23;20037;-86
2020/12/04 00:39:15;;;;;;;23.25;11.57;;;-1.70;99.60;;;;;;6142757;23;20013;-88
2020/12/04 00:41:42;;;;;;;21.73;10.68;;;-1.70;99.50;;;;;;6168348;23;20376;-87
2020/12/04 00:44:08;;;;;;;22.30;9.98;;;-1.70;99.60;;;;;;6139291;23;20002;-86
2020/12/04 00:46:34;;;;;;;26.50;10.88;;;-1.70;99.60;;;;;;6138504;23;20437;-87
2020/12/04 00:48:59;;;;;;;24.88;11.25;;;-1.70;99.60;;;;;;6139796;23;20001;-87
2020/12/04 00:51:26;;;;;;;25.20;11.65;;;-1.60;99.70;;;;;;6140095;23;20021;-87
2020/12/04 00:53:53;;;;;;;28.33;12.85;;;-1.60;99.50;;;;;;6168853;23;19993;-87
2020/12/04 00:56:29;;;;;;;25.70;12.02;;;-1.60;99.50;;;;;;6137899;23;20077;-88
2020/12/04 00:58:54;;;;;;;25.90;12.30;;;-1.60;99.50;;;;;;6136238;23;20002;-87
2020/12/04 01:01:20;;;;;;;27.15;13.05;;;-1.60;99.40;;;;;;6137527;23;20037;-87
2020/12/04 01:03:46;;;;;;;24.45;12.25;;;-1.60;99.40;;;;;;6140695;23;20009;-88
2020/12/04 01:06:12;;;;;;;30.05;13.63;;;-1.60;99.40;;;;;;6153550;23;20001;-90
2020/12/04 01:08:38;;;;;;;24.98;12.10;;;-1.60;99.40;;;;;;6153734;23;20092;-88
2020/12/04 01:11:04;;;;;;;24.20;10.60;;;-1.60;99.30;;;;;;6153899;23;20022;-90
2020/12/04 01:13:30;;;;;;;20.73;11.70;;;-1.60;99.30;;;;;;6154205;23;20005;-89
2020/12/04 01:15:56;;;;;;;22.80;11.20;;;-1.60;99.30;;;;;;6180324;23;19989;-89
2020/12/04 01:18:21;;;;;;;26.83;13.23;;;-1.60;99.20;;;;;;6154164;23;20057;-89
2020/12/04 01:20:47;;;;;;;35.47;16.55;;;-1.60;99.30;;;;;;6144348;23;20022;-87
2020/12/04 01:23:13;;;;;;;28.65;13.80;;;-1.70;99.20;;;;;;6138568;23;20080;-87
2020/12/04 01:25:39;;;;;;;24.98;12.02;;;-1.70;99.30;;;;;;6138834;23;20006;-88
2020/12/04 01:28:04;;;;;;;25.83;11.75;;;-1.70;99.50;;;;;;6143294;23;20096;-88
2020/12/04 01:30:30;;;;;;;26.95;12.35;;;-1.80;99.50;;;;;;6170565;23;20390;-88
2020/12/04 01:32:56;;;;;;;24.80;12.02;;;-1.80;99.50;;;;;;6171196;23;20021;-88
2020/12/04 01:35:21;;;;;;;24.88;12.00;;;-1.80;99.60;;;;;;6144861;23;20116;-88
2020/12/04 01:37:47;;;;;;;27.67;12.25;;;-1.80;99.80;;;;;;6145380;23;20005;-87
2020/12/04 01:40:12;;;;;;;21.10;10.32;;;-1.80;99.80;;;;;;6146160;23;20006;-88
2020/12/04 01:42:38;;;;;;;31.10;13.23;;;-1.90;99.90;;;;;;6148415;23;20017;-91
2020/12/04 01:45:05;;;;;;;25.30;12.93;;;-1.90;99.80;;;;;;6148434;23;20006;-87
2020/12/04 01:47:30;;;;;;;25.75;12.05;;;-1.90;99.90;;;;;;6143017;23;20319;-87
2020/12/04 01:49:56;;;;;;;22.70;9.90;;;-1.90;99.90;;;;;;6142599;23;20001;-87
2020/12/04 01:52:26;;;;;;;21.80;10.95;;;-1.90;99.90;;;;;;6143342;23;20109;-86
2020/12/04 01:54:53;;;;;;;17.88;9.90;;;-1.90;99.90;;;;;;6142497;23;20437;-87
2020/12/04 01:57:21;;;;;;;25.92;11.80;;;-1.90;99.90;;;;;;6167300;23;19997;-86
2020/12/04 01:59:47;;;;;;;24.17;11.93;;;-1.90;99.90;;;;;;6141390;23;20005;-88
2020/12/04 02:02:22;;;;;;;18.10;10.02;;;-1.90;99.90;;;;;;6140973;23;20001;-87
2020/12/04 02:04:48;;;;;;;23.02;11.30;;;-1.90;99.90;;;;;;6142536;23;20006;-88
2020/12/04 02:07:29;;;;;;;21.65;10.25;;;-1.90;99.90;;;;;;6141727;23;20028;-87
2020/12/04 02:09:59;;;;;;;22.15;10.90;;;-2.00;99.90;;;;;;6142878;23;20032;-88
2020/12/04 02:12:26;;;;;;;20.42;10.07;;;-2.00;99.90;;;;;;6155296;23;20024;-90
2020/12/04 02:14:53;;;;;;;20.77;10.70;;;-2.00;99.90;;;;;;6144340;23;20029;-87
2020/12/04 02:17:35;;;;;;;26.25;11.90;;;-2.00;99.90;;;;;;6140927;23;20096;-86
2020/12/04 02:20:00;;;;;;;25.85;11.88;;;-2.00;99.90;;;;;;6167079;23;20017;-86
2020/12/04 02:22:37;;;;;;;27.90;13.23;;;-2.00;99.90;;;;;;6140096;23;20009;-86
2020/12/04 02:25:08;;;;;;;22.50;11.82;;;-2.00;99.90;;;;;;6138975;23;20009;-87
2020/12/04 02:27:44;;;;;;;31.27;13.70;;;-2.10;99.90;;;;;;6138752;23;20044;-86
2020/12/04 02:30:12;;;;;;;26.70;12.35;;;-2.10;99.90;;;;;;6137746;23;20633;-86
2020/12/04 02:32:38;;;;;;;21.73;11.00;;;-2.10;99.90;;;;;;6138615;23;20377;-87
2020/12/04 02:35:03;;;;;;;22.67;11.05;;;-2.10;99.90;;;;;;6139071;23;20092;-88
2020/12/04 02:37:29;;;;;;;23.10;9.95;;;-2.10;99.90;;;;;;6139000;23;20025;-88
2020/12/04 02:39:55;;;;;;;24.92;10.90;;;-2.10;99.90;;;;;;6138006;23;20006;-87
2020/12/04 02:42:20;;;;;;;24.90;11.23;;;-2.20;99.90;;;;;;6136431;23;20036;-87
2020/12/04 02:44:46;;;;;;;22.98;10.32;;;-2.20;99.90;;;;;;6136690;23;20012;-88
2020/12/04 02:47:12;;;;;;;29.92;14.93;;;-2.20;99.90;;;;;;6138419;23;20838;-89
2020/12/04 02:49:38;;;;;;;25.58;11.80;;;-2.20;99.90;;;;;;6137341;23;20017;-89
2020/12/04 02:52:04;;;;;;;22.52;11.48;;;-2.20;99.90;;;;;;6137072;23;20017;-87
2020/12/04 02:54:30;;;;;;;32.88;14.30;;;-2.20;99.90;;;;;;6138787;23;20060;-88
2020/12/04 04:54:01;;;;;;;21.08;10.00;;;-1.40;98.40;;;;;;6242091;23;20198;-91
2020/12/04 04:57:08;;;;;;;19.48;9.82;;;-1.30;98.30;;;;;;6215585;23;20012;-92
2020/12/04 05:00:04;;;;;;;16.77;8.00;;;-1.30;98.30;;;;;;6176085;23;20016;-86
2020/12/04 05:03:21;;;;;;;18.08;8.93;;;-1.30;98.30;;;;;;6119356;23;20017;-87
2020/12/04 05:05:56;;;;;;;17.75;9.07;;;-1.20;98.20;;;;;;6135336;23;20029;-87
2020/12/04 05:12:37;;;;;;;15.85;8.23;;;-1.10;98.00;;;;;;6137349;23;20033;-86
2020/12/04 05:15:34;;;;;;;16.92;8.70;;;-1.10;98.00;;;;;;6107387;23;20006;-86
2020/12/04 05:18:39;;;;;;;17.85;8.23;;;-1.10;98.00;;;;;;6106547;23;20003;-86
2020/12/04 05:21:36;;;;;;;16.90;7.22;;;-1.10;98.00;;;;;;6086343;23;20002;-85
2020/12/04 05:24:11;;;;;;;19.08;8.68;;;-1.10;98.00;;;;;;6153069;23;20158;-85
2020/12/04 05:26:41;;;;;;;18.83;8.95;;;-1.10;98.00;;;;;;6160530;23;20431;-87
2020/12/04 05:29:18;;;;;;;17.52;9.05;;;-1.10;98.00;;;;;;6160802;23;20009;-85
2020/12/04 05:32:00;;;;;;;14.32;8.38;;;-1.20;98.10;;;;;;6181581;23;20043;-86
2020/12/04 05:34:25;;;;;;;15.65;7.53;;;-1.10;98.20;;;;;;6159251;23;20060;-86
2020/12/04 05:36:51;;;;;;;15.98;7.53;;;-1.10;98.20;;;;;;6160805;23;19997;-87
2020/12/04 05:39:18;;;;;;;18.20;8.32;;;-1.10;98.20;;;;;;6160509;23;20051;-86
2020/12/04 05:41:51;;;;;;;19.77;8.63;;;-1.10;98.00;;;;;;6161220;23;20005;-87
2020/12/04 05:44:17;;;;;;;18.77;8.93;;;-1.10;98.10;;;;;;6185719;23;20028;-86
2020/12/04 05:46:53;;;;;;;18.10;7.57;;;-1.10;98.10;;;;;;6161032;23;20005;-88
2020/12/04 05:49:20;;;;;;;13.18;6.72;;;-1.10;98.20;;;;;;6188067;23;20008;-86
2020/12/04 05:51:47;;;;;;;14.98;7.28;;;-1.10;98.10;;;;;;6187878;23;20036;-86
2020/12/04 05:54:12;;;;;;;18.25;7.93;;;-1.00;98.10;;;;;;6193304;23;20004;-84
2020/12/04 05:56:49;;;;;;;14.90;7.70;;;-1.00;98.00;;;;;;6204188;23;20001;-85
2020/12/04 05:59:20;;;;;;;16.65;9.02;;;-0.90;97.90;;;;;;6180134;23;20043;-85
2020/12/04 06:01:45;;;;;;;17.20;8.23;;;-0.90;97.90;;;;;;6205396;23;20008;-84
2020/12/04 06:04:16;;;;;;;15.13;8.05;;;-0.90;97.80;;;;;;6207852;23;20033;-85
2020/12/04 06:06:45;;;;;;;21.45;9.13;;;-0.80;97.70;;;;;;6207333;23;20024;-86
2020/12/04 06:09:11;;;;;;;15.73;7.85;;;-0.80;97.60;;;;;;6203850;23;20271;-85
2020/12/04 06:11:47;;;;;;;18.75;8.40;;;-0.70;97.50;;;;;;6203188;23;20012;-85
2020/12/04 06:14:17;;;;;;;16.52;8.95;;;-0.70;97.50;;;;;;6203726;23;20039;-85
2020/12/04 06:16:44;;;;;;;18.67;8.82;;;-0.70;97.50;;;;;;6201956;23;20381;-85
2020/12/04 06:19:32;;;;;;;18.40;8.75;;;-0.60;97.40;;;;;;6196215;23;20033;-87
2020/12/04 06:22:09;;;;;;;15.80;8.23;;;-0.60;97.30;;;;;;6197242;23;20025;-86
2020/12/04 06:24:53;;;;;;;17.38;8.82;;;-0.60;97.10;;;;;;6197527;23;20081;-86
2020/12/04 06:27:40;;;;;;;16.52;7.63;;;-0.50;97.00;;;;;;6192388;23;20024;-86
2020/12/04 06:30:08;;;;;;;14.43;7.15;;;-0.50;96.90;;;;;;6190354;23;20028;-87
2020/12/04 06:32:48;;;;;;;17.17;8.68;;;-0.50;96.80;;;;;;6190670;23;20001;-87
2020/12/04 06:35:31;;;;;;;17.30;8.10;;;-0.40;96.80;;;;;;6189929;23;20080;-87
2020/12/04 06:37:57;;;;;;;17.00;8.38;;;-0.40;96.80;;;;;;6188360;23;20005;-86
2020/12/04 06:40:29;;;;;;;19.10;9.10;;;-0.50;96.80;;;;;;6163158;23;20044;-87
2020/12/04 06:42:56;;;;;;;17.00;9.88;;;-0.50;96.90;;;;;;6189573;23;20009;-86
2020/12/04 06:45:48;;;;;;;22.15;11.13;;;-0.50;96.90;;;;;;6166367;23;20001;-83
2020/12/04 06:48:18;;;;;;;22.83;11.10;;;-0.60;96.90;;;;;;6172277;23;20012;-86
2020/12/04 06:50:48;;;;;;;19.67;10.43;;;-0.60;97.00;;;;;;6190022;23;20322;-84
2020/12/04 06:53:16;;;;;;;21.20;10.48;;;-0.60;97.00;;;;;;6167352;23;20002;-84
2020/12/04 06:55:44;;;;;;;16.48;7.95;;;-0.60;97.10;;;;;;6192195;23;20068;-86
2020/12/04 06:58:10;;;;;;;14.43;6.75;;;-0.60;97.20;;;;;;6193414;23;20528;-84
2020/12/04 07:00:36;;;;;;;18.52;8.77;;;-0.60;97.30;;;;;;6195357;23;20355;-86
2020/12/04 07:03:05;;;;;;;13.25;7.07;;;-0.50;97.30;;;;;;6167706;23;20077;-87
2020/12/04 07:05:34;;;;;;;17.45;8.07;;;-0.50;97.20;;;;;;6194102;23;20001;-86
2020/12/04 07:08:04;;;;;;;16.52;8.07;;;-0.40;97.10;;;;;;6189758;23;20024;-84
2020/12/04 07:10:33;;;;;;;15.10;7.95;;;-0.30;97.00;;;;;;6191334;23;20001;-85
2020/12/04 07:13:03;;;;;;;16.52;8.00;;;-0.20;96.90;;;;;;6165031;23;20009;-86
2020/12/04 07:15:32;;;;;;;16.23;8.07;;;-0.20;96.80;;;;;;6193824;23;20059;-81
2020/12/04 07:18:12;;;;;;;16.67;8.23;;;-0.10;96.60;;;;;;6197665;23;20023;-84
2020/12/04 07:20:50;;;;;;;16.02;8.80;;;-0.10;96.30;;;;;;6170654;23;20295;-86
2020/12/04 07:23:26;;;;;;;16.13;8.23;;;-0.10;96.10;;;;;;6172619;23;20005;-86
2020/12/04 07:26:00;;;;;;;18.55;8.48;;;0.00;96.10;;;;;;6196618;23;20294;-85
2020/12/04 07:28:52;;;;;;;24.52;10.60;;;0.00;96.00;;;;;;6201496;23;20048;-84
2020/12/04 07:31:26;;;;;;;18.58;9.45;;;0.00;95.70;;;;;;6148864;23;20014;-86
2020/12/04 07:34:02;;;;;;;21.38;9.40;;;0.10;96.00;;;;;;6117456;23;20031;-85
2020/12/04 07:36:36;;;;;;;18.08;9.70;;;0.20;95.50;;;;;;6102815;23;20006;-85
2020/12/04 07:39:45;;;;;;;21.02;8.93;;;0.20;95.40;;;;;;6130641;23;20016;-85
2020/12/04 07:46:25;;;;;;;17.58;9.23;;;0.30;94.90;;;;;;6125437;23;20041;-85
2020/12/04 07:53:24;;;;;;;19.55;8.68;;;0.40;94.70;;;;;;6110887;23;20041;-85
2020/12/04 07:59:59;;;;;;;21.95;10.63;;;0.40;94.00;;;;;;5969958;24;20091;-86
2020/12/04 08:03:06;;;;;;;22.73;9.82;;;0.40;94.00;;;;;;5942251;24;20016;-86
2020/12/04 08:06:12;;;;;;;20.15;9.40;;;0.50;94.00;;;;;;6022970;23;20527;-86
2020/12/04 08:09:53;;;;;;;21.80;10.00;;;0.50;93.90;;;;;;6081745;23;20047;-84
2020/12/04 08:12:50;;;;;;;20.33;9.52;;;0.50;93.80;;;;;;6010687;23;20036;-85
2020/12/04 08:16:00;;;;;;;15.93;7.60;;;0.60;93.60;;;;;;6034617;23;20009;-85
2020/12/04 08:18:34;;;;;;;15.65;8.70;;;0.70;93.60;;;;;;5939812;24;20012;-85
2020/12/04 08:21:05;;;;;;;20.60;10.43;;;0.80;93.50;;;;;;5970554;23;20016;-80
2020/12/04 08:23:33;;;;;;;24.48;11.13;;;0.90;93.10;;;;;;6075848;23;20687;-84
2020/12/04 08:25:59;;;;;;;19.40;9.15;;;1.00;92.80;;;;;;6113316;23;20036;-81
2020/12/04 08:28:25;;;;;;;19.35;8.43;;;1.10;92.80;;;;;;6191775;23;20009;-82
2020/12/04 08:30:51;;;;;;;17.38;7.90;;;1.20;92.60;;;;;;6166271;23;20001;-82
2020/12/04 08:33:17;;;;;;;13.05;7.20;;;1.30;92.50;;;;;;6190173;23;20144;-82
2020/12/04 08:35:44;;;;;;;14.82;6.75;;;1.40;92.10;;;;;;6192018;23;20005;-82
2020/12/04 08:38:16;;;;;;;12.05;6.28;;;1.40;91.90;;;;;;6190914;23;20005;-82
2020/12/04 08:40:49;;;;;;;12.57;5.80;;;1.60;91.70;;;;;;6192376;23;20367;-81
2020/12/04 08:43:16;;;;;;;10.15;5.20;;;1.60;91.50;;;;;;6165309;23;20009;-82
2020/12/04 08:45:44;;;;;;;12.48;6.00;;;1.70;91.40;;;;;;6192774;23;20008;-82
2020/12/04 08:48:40;;;;;;;20.60;9.93;;;1.80;91.00;;;;;;6194217;23;19997;-83
2020/12/04 08:51:07;;;;;;;19.98;9.73;;;1.80;90.10;;;;;;6147442;23;20008;-82
2020/12/04 08:53:34;;;;;;;15.40;8.27;;;1.80;90.00;;;;;;6192626;23;20072;-83
2020/12/04 08:56:01;;;;;;;29.35;11.60;;;1.80;90.40;;;;;;6190959;23;20005;-81
2020/12/04 08:58:28;;;;;;;21.38;11.25;;;1.70;90.20;;;;;;6192884;23;20015;-81
2020/12/04 09:00:56;;;;;;;17.92;9.55;;;1.70;90.80;;;;;;6169478;23;20005;-82
2020/12/04 09:03:23;;;;;;;16.88;8.40;;;1.80;90.70;;;;;;6170268;23;20005;-83
2020/12/04 09:05:49;;;;;;;21.10;9.63;;;1.90;91.10;;;;;;6198043;23;19997;-83
2020/12/04 09:08:16;;;;;;;19.38;9.38;;;1.90;90.60;;;;;;6198328;23;20140;-82
2020/12/04 09:10:44;;;;;;;26.42;10.55;;;1.90;90.50;;;;;;6199500;23;20012;-82
2020/12/04 09:13:10;;;;;;;14.23;7.72;;;1.90;90.40;;;;;;6202501;23;20001;-81
2020/12/04 09:15:36;;;;;;;14.90;7.93;;;1.90;90.50;;;;;;6203757;23;20035;-83
2020/12/04 09:18:03;;;;;;;22.85;9.82;;;1.90;90.40;;;;;;6199465;23;20009;-82
2020/12/04 09:20:31;;;;;;;18.70;9.30;;;1.90;90.10;;;;;;6175751;23;20015;-82
2020/12/04 09:22:58;;;;;;;13.48;7.68;;;1.90;90.00;;;;;;6175200;23;20024;-81
2020/12/04 09:25:25;;;;;;;16.23;8.05;;;1.90;90.40;;;;;;6198792;23;20040;-82
2020/12/04 09:27:51;;;;;;;16.80;8.65;;;1.90;90.40;;;;;;6198581;23;20032;-82
2020/12/04 09:30:20;;;;;;;17.38;7.72;;;1.80;90.20;;;;;;6198844;23;20004;-82
2020/12/04 09:32:47;;;;;;;13.20;6.60;;;1.90;90.50;;;;;;6196600;23;20088;-82
2020/12/04 09:35:17;;;;;;;16.27;8.63;;;1.90;90.40;;;;;;6195127;23;20013;-83
2020/12/04 09:37:44;;;;;;;18.63;8.68;;;1.90;90.20;;;;;;6201967;23;20069;-81
2020/12/04 09:40:16;;;;;;;16.85;7.65;;;2.00;90.20;;;;;;6210606;23;19993;-81
2020/12/04 09:42:42;;;;;;;;;;;2.00;90.40;;;;;;6208370;23;19993;-80
2020/12/04 09:45:10;;;;;;;21.88;10.45;;;2.10;90.40;;;;;;6203961;23;19908;-84
2020/12/04 09:47:36;;;;;;;25.95;9.70;;;2.00;89.40;;;;;;6196376;23;20076;-83
2020/12/04 09:50:05;;;;;;;24.50;11.65;;;2.10;90.00;;;;;;6196890;23;20004;-83
2020/12/04 09:52:33;;;;;;;20.02;9.93;;;2.10;90.00;;;;;;6198027;23;20034;-83
2020/12/04 09:54:59;;;;;;;23.13;10.57;;;2.20;90.30;;;;;;6198003;23;20005;-83
2020/12/04 09:57:25;;;;;;;28.05;11.63;;;2.20;90.00;;;;;;6199691;23;20451;-80
2020/12/04 09:59:51;;;;;;;33.60;11.63;;;2.20;89.30;;;;;;6198943;23;20001;-84
2020/12/04 10:02:17;;;;;;;21.77;10.43;;;2.20;90.00;;;;;;6197365;23;20012;-80
2020/12/04 10:04:43;;;;;;;15.75;7.68;;;2.30;90.00;;;;;;6193185;23;19997;-84
2020/12/04 10:07:09;;;;;;;15.43;7.15;;;2.40;90.30;;;;;;6167285;23;20016;-82
2020/12/04 10:09:38;;;;;;;12.13;6.10;;;2.60;90.20;;;;;;6210368;23;20009;-82
2020/12/04 10:12:05;;;;;;;19.80;9.80;;;2.70;89.80;;;;;;6194623;23;20005;-83
2020/12/04 10:14:34;;;;;;;21.77;8.93;;;2.80;88.10;;;;;;6192821;23;20028;-82
2020/12/04 10:17:01;;;;;;;16.90;7.82;;;2.90;87.40;;;;;;6192195;23;20061;-81
2020/12/04 10:19:27;;;;;;;17.85;8.75;;;2.90;87.00;;;;;;6191804;23;20001;-81
2020/12/04 10:21:53;;;;;;;26.17;9.23;;;2.90;85.80;;;;;;6167143;23;20008;-81
2020/12/04 10:24:19;;;;;;;14.02;7.03;;;2.90;85.60;;;;;;6167944;23;20032;-81
2020/12/04 10:26:50;;;;;;;13.45;6.80;;;2.90;86.20;;;;;;6193622;23;19997;-81
2020/12/04 10:29:20;;;;;;;16.05;7.45;;;3.00;86.50;;;;;;6142019;23;20029;-82
2020/12/04 10:31:46;;;;;;;16.02;7.60;;;3.00;85.70;;;;;;6142758;23;20005;-82
2020/12/04 10:34:12;;;;;;;17.15;7.85;;;3.00;85.70;;;;;;6192547;23;20005;-83
2020/12/04 10:36:39;;;;;;;12.57;6.63;;;3.00;85.70;;;;;;6194048;23;20329;-82
2020/12/04 10:39:07;;;;;;;23.75;8.93;;;2.90;85.90;;;;;;6172133;23;20001;-81
2020/12/04 10:41:48;;;;;;;18.55;8.95;;;2.90;85.50;;;;;;6205030;23;20001;-83
2020/12/04 10:44:15;;;;;;;15.23;7.88;;;2.80;85.90;;;;;;6195064;23;20016;-83
2020/12/04 10:46:41;;;;;;;14.60;7.13;;;2.80;86.20;;;;;;6199071;23;20025;-82
2020/12/04 10:49:08;;;;;;;16.73;7.68;;;2.80;86.90;;;;;;6204668;23;19992;-81
2020/12/04 10:51:34;;;;;;;15.95;7.40;;;2.80;86.30;;;;;;6210186;23;19993;-82
2020/12/04 10:54:00;;;;;;;16.33;8.65;;;2.70;86.50;;;;;;6198670;23;20005;-83
2020/12/04 10:56:26;;;;;;;16.52;8.70;;;2.80;87.30;;;;;;6192153;23;20001;-82
2020/12/04 10:58:52;;;;;;;16.90;8.02;;;2.70;87.20;;;;;;6191850;23;20004;-83
2020/12/04 11:01:43;;;;;;;15.13;8.15;;;2.70;87.60;;;;;;6191678;23;20001;-83
2020/12/04 11:06:56;;;;;;;23.13;10.20;;;2.80;88.10;;;;;;6192522;23;20337;-83
2020/12/04 11:09:21;;;;;;;24.02;12.13;;;2.80;87.40;;;;;;6165619;23;20440;-82
2020/12/04 11:11:50;;;;;;;21.70;9.85;;;2.80;87.50;;;;;;6192522;23;20001;-83
2020/12/04 11:14:16;;;;;;;19.73;8.60;;;2.80;87.80;;;;;;6191877;23;20001;-82
2020/12/04 11:16:43;;;;;;;22.83;10.80;;;2.90;88.00;;;;;;6193353;23;20129;-82
2020/12/04 11:19:10;;;;;;;16.48;8.95;;;2.90;87.80;;;;;;6193282;23;20001;-82
2020/12/04 11:21:35;;;;;;;14.90;8.13;;;3.00;88.20;;;;;;6193061;23;20016;-80
2020/12/04 11:24:01;;;;;;;19.90;10.45;;;3.10;87.90;;;;;;6190660;23;20039;-84
2020/12/04 11:26:27;;;;;;;15.35;8.18;;;3.20;87.00;;;;;;6167762;23;20033;-84
2020/12/04 11:28:53;;;;;;;12.70;7.50;;;3.30;87.10;;;;;;6193062;23;20005;-84
2020/12/04 11:31:19;;;;;;;12.00;6.78;;;3.40;86.60;;;;;;6195616;23;19997;-83
2020/12/04 11:33:44;;;;;;;12.93;6.72;;;3.60;86.20;;;;;;6193797;23;20068;-83
2020/12/04 11:36:21;;;;;;;12.82;6.72;;;3.80;85.60;;;;;;6167037;23;20016;-83
2020/12/04 11:38:56;;;;;;;13.52;7.10;;;4.10;84.50;;;;;;6168095;23;20015;-83
2020/12/04 11:41:43;;;;;;;28.13;11.60;;;4.20;83.40;;;;;;6194410;23;20027;-83
2020/12/04 11:44:09;;;;;;;22.40;10.05;;;4.40;81.10;;;;;;6169185;23;20009;-83
2020/12/04 11:46:34;;;;;;;21.58;9.90;;;4.40;79.60;;;;;;6193848;23;20059;-83
2020/12/04 11:49:00;;;;;;;22.95;10.27;;;4.40;79.50;;;;;;6167496;23;20008;-84
2020/12/04 11:51:25;;;;;;;15.82;9.35;;;4.50;79.60;;;;;;6192510;23;20001;-84
2020/12/04 11:53:51;;;;;;;18.27;9.70;;;4.60;79.80;;;;;;6167356;23;20018;-84
2020/12/04 11:56:17;;;;;;;32.67;11.10;;;4.80;78.90;;;;;;6168500;23;20025;-84
2020/12/04 11:58:43;;;;;;;18.60;9.18;;;4.80;78.10;;;;;;6167909;23;20088;-84
2020/12/04 12:01:09;;;;;;;20.95;9.85;;;5.10;78.80;;;;;;6192665;23;20382;-84
2020/12/04 12:03:35;;;;;;;13.57;7.97;;;5.20;77.50;;;;;;6168309;23;20012;-84
2020/12/04 12:06:01;;;;;;;17.42;8.70;;;5.40;77.80;;;;;;6168069;23;20005;-83
2020/12/04 12:08:27;;;;;;;14.70;7.97;;;5.50;75.80;;;;;;6177472;23;20005;-86
2020/12/04 12:10:55;;;;;;;14.50;7.28;;;5.60;75.60;;;;;;6193140;23;20112;-85
2020/12/04 12:13:21;;;;;;;14.35;8.00;;;5.60;75.20;;;;;;6167109;23;20074;-85
2020/12/04 12:15:46;;;;;;;15.65;7.20;;;5.60;74.60;;;;;;6193343;23;20083;-84
2020/12/04 12:18:12;;;;;;;18.85;8.57;;;5.50;74.60;;;;;;6194998;23;20005;-84
2020/12/04 12:20:38;;;;;;;11.50;6.78;;;5.50;73.80;;;;;;6193779;23;20012;-84
2020/12/04 12:23:04;;;;;;;20.58;8.07;;;5.60;73.90;;;;;;6195186;23;20341;-83
2020/12/04 12:25:29;;;;;;;19.08;9.18;;;5.70;74.70;;;;;;6194435;23;20016;-86
2020/12/04 12:27:56;;;;;;;18.92;9.98;;;6.00;73.00;;;;;;6194633;23;20004;-85
2020/12/04 12:33:26;;;;;;;16.85;6.47;;;6.20;71.40;;;;;;6189014;23;20012;-83
2020/12/04 12:36:36;;;;;;;16.27;6.90;;;6.40;71.00;;;;;;6175147;23;20012;-85
2020/12/04 12:39:06;;;;;;;10.88;6.38;;;6.50;70.30;;;;;;6203168;23;20061;-85
2020/12/04 12:41:31;;;;;;;10.88;5.53;;;6.70;70.60;;;;;;6202983;23;20005;-84
2020/12/04 12:43:57;;;;;;;8.38;5.10;;;7.20;80.10;;;;;;6199887;23;20028;-85
2020/12/04 12:46:23;;;;;;;6.50;4.05;;;7.50;77.60;;;;;;6200669;23;20081;-86
2020/12/04 12:48:52;;;;;;;6.03;3.63;;;7.50;66.80;;;;;;6174137;23;20005;-85
2020/12/04 12:51:18;;;;;;;5.40;3.63;;;7.60;66.00;;;;;;6173649;23;19997;-84
2020/12/04 12:53:43;;;;;;;5.13;3.60;;;7.60;65.60;;;;;;6200276;23;20039;-85
2020/12/04 12:56:09;;;;;;;14.05;5.05;;;7.70;65.10;;;;;;6200758;23;20069;-83
2020/12/04 12:58:35;;;;;;;7.65;4.07;;;7.70;64.50;;;;;;6206994;23;19985;-83
2020/12/04 13:01:01;;;;;;;9.70;5.90;;;7.70;64.40;;;;;;6185952;23;20020;-81
2020/12/04 13:03:27;;;;;;;17.20;7.10;;;7.70;63.70;;;;;;6207820;23;20009;-83
2020/12/04 13:05:53;;;;;;;8.50;5.20;;;7.60;63.30;;;;;;6203433;23;19997;-83
2020/12/04 13:08:20;;;;;;;12.98;6.15;;;7.50;64.30;;;;;;6199915;23;20052;-83
2020/12/04 13:10:48;;;;;;;22.85;6.80;;;7.40;64.30;;;;;;6175797;23;20056;-82
2020/12/04 13:13:17;;;;;;;13.80;7.10;;;7.40;64.60;;;;;;6202403;23;20056;-84
2020/12/04 13:15:43;;;;;;;19.50;7.13;;;7.30;64.70;;;;;;6175547;23;20005;-85
2020/12/04 13:18:09;;;;;;;14.43;5.85;;;7.40;64.90;;;;;;6176073;23;20005;-85
2020/12/04 13:20:35;;;;;;;10.05;5.18;;;7.40;64.90;;;;;;6176856;23;20001;-84
2020/12/04 13:23:20;;;;;;;14.48;6.55;;;7.50;65.30;;;;;;6202980;23;20059;-85
2020/12/04 13:25:48;;;;;;;21.77;7.85;;;7.50;65.30;;;;;;6176997;23;20020;-85
2020/12/04 13:28:14;;;;;;;12.23;6.90;;;7.40;65.90;;;;;;6185068;23;20072;-82
2020/12/04 13:30:40;;;;;;;12.88;5.40;;;7.30;66.50;;;;;;6185805;23;19989;-83
2020/12/04 13:33:07;;;;;;;9.32;4.65;;;7.30;66.80;;;;;;6185795;23;19997;-82
2020/12/04 13:35:35;;;;;;;12.45;6.95;;;7.30;67.10;;;;;;6211476;23;19985;-82
2020/12/04 13:38:01;;;;;;;9.80;6.00;;;7.20;67.90;;;;;;6210222;23;20001;-82
2020/12/04 13:40:27;;;;;;;9.38;4.70;;;7.10;67.50;;;;;;6210561;23;20000;-81
2020/12/04 13:42:53;;;;;;;6.85;4.13;;;7.10;67.80;;;;;;6211607;23;20072;-81
2020/12/04 13:45:18;;;;;;;8.85;4.90;;;7.00;68.10;;;;;;6210847;23;20021;-82
2020/12/04 13:47:44;;;;;;;9.50;4.28;;;7.00;68.40;;;;;;6211149;23;20007;-81
2020/12/04 13:50:10;;;;;;;9.18;5.28;;;7.00;68.60;;;;;;6185966;23;20009;-82
2020/12/04 13:52:36;;;;;;;6.97;4.22;;;7.00;68.90;;;;;;6184245;23;20004;-83
2020/12/04 13:55:02;;;;;;;9.73;5.78;;;7.00;69.10;;;;;;6183275;23;19997;-82
2020/12/04 13:57:27;;;;;;;10.90;6.13;;;7.00;69.30;;;;;;6210700;23;19989;-84
2020/12/04 14:00:03;;;;;;;16.27;6.63;;;7.00;69.40;;;;;;6209712;23;20012;-85
2020/12/04 14:02:30;;;;;;;14.25;7.47;;;7.00;69.30;;;;;;6204199;23;20005;-85
2020/12/04 14:04:56;;;;;;;14.65;7.20;;;6.90;69.20;;;;;;6200447;23;20008;-85
2020/12/04 14:07:24;;;;;;;11.80;6.68;;;6.90;69.20;;;;;;6199384;23;19994;-82
2020/12/04 14:09:50;;;;;;;9.55;5.90;;;6.80;69.40;;;;;;6203259;23;20005;-84
2020/12/04 14:12:16;;;;;;;7.68;4.90;;;6.70;69.30;;;;;;6209718;23;20045;-83
2020/12/04 14:14:41;;;;;;;9.25;5.18;;;6.70;69.40;;;;;;6177368;23;20020;-84
2020/12/04 14:17:07;;;;;;;10.10;5.00;;;6.70;83.50;;;;;;6167374;23;20012;-85
2020/12/04 14:19:33;;;;;;;12.35;5.60;;;6.50;69.70;;;;;;6167927;23;20005;-84
2020/12/04 14:21:59;;;;;;;10.15;5.70;;;6.30;70.00;;;;;;6166782;23;20028;-84
2020/12/04 14:24:25;;;;;;;9.68;5.00;;;6.20;70.50;;;;;;6170108;23;20052;-84
2020/12/04 14:26:52;;;;;;;10.57;5.45;;;6.10;70.90;;;;;;6193954;23;19997;-85
2020/12/04 14:29:18;;;;;;;8.32;4.55;;;5.90;71.20;;;;;;6191073;23;20001;-83
2020/12/04 14:31:44;;;;;;;7.80;4.65;;;5.90;71.60;;;;;;6193099;23;20063;-85
2020/12/04 14:34:11;;;;;;;8.48;4.25;;;5.80;72.00;;;;;;6166717;23;20005;-85
2020/12/04 14:36:37;;;;;;;7.25;5.35;;;5.70;72.20;;;;;;6193454;23;20001;-83
2020/12/04 14:39:09;;;;;;;7.95;4.45;;;5.70;72.40;;;;;;6192678;23;20075;-84
2020/12/04 14:41:36;;;;;;;6.57;3.45;;;5.70;72.60;;;;;;6192690;23;20123;-84
2020/12/04 14:44:04;;;;;;;7.53;3.97;;;5.60;72.60;;;;;;6169140;23;20016;-85
2020/12/04 14:46:30;;;;;;;8.75;4.15;;;5.70;72.60;;;;;;6194006;23;20005;-84
2020/12/04 14:48:56;;;;;;;6.93;4.07;;;5.70;72.20;;;;;;6193579;23;20001;-84
2020/12/04 14:51:27;;;;;;;6.88;3.45;;;5.70;71.70;;;;;;6195248;23;19997;-85
2020/12/04 14:53:53;;;;;;;7.55;3.90;;;5.80;71.30;;;;;;6202432;23;20033;-86
2020/12/04 14:56:19;;;;;;;6.15;3.20;;;5.80;70.90;;;;;;6190317;23;20016;-86
2020/12/04 14:58:45;;;;;;;5.20;2.90;;;5.80;70.70;;;;;;6164758;23;20096;-86
2020/12/04 15:01:11;;;;;;;5.32;3.47;;;5.80;70.50;;;;;;6165074;23;20005;-85
2020/12/04 15:03:38;;;;;;;13.82;3.97;;;5.70;70.40;;;;;;6190212;23;20084;-85
2020/12/04 15:06:05;;;;;;;6.35;3.53;;;5.80;70.30;;;;;;6165683;23;20005;-85
2020/12/04 15:08:31;;;;;;;7.05;3.13;;;5.90;69.20;;;;;;6191727;23;20008;-85
2020/12/04 15:10:57;;;;;;;7.00;2.58;;;6.10;67.50;;;;;;6193757;23;19993;-86
2020/12/04 15:13:23;;;;;;;6.53;1.73;;;6.30;65.30;;;;;;6201822;23;20475;-83